AMF876 KBUR-KSMX
Flight info
| Callsign | AMF876 |
|---|---|
| Flight time | 0h 32m |
| Altitude | 16000 |
| Route | VNY3 FIM V386 OHIGH V485 FLW GLJ |
| Aircraft | SF34/M-SDFGR/S |
Departure
| Time | 2026-04-21 18:46 |
|---|---|
| Airport | Hollywood Burbank/Bob Hope Airport (KBUR) |
Arrival
| Time | 2026-04-21 19:18 |
|---|---|
| Airport | Santa Maria Public Airport Captain G Allan Hancock Field (KSMX) |
| Time | Latitude | Longitude | Altitude | Speed | Heading |
|---|---|---|---|---|---|
| 2026-04-21 18:35 | 34.19616 | -118.35958 | 703 ft | 0 kts | 180° |
| 2026-04-21 18:43 | 34.19613 | -118.35957 | 703 ft | 3 kts | 160° |
| 2026-04-21 18:43 | 34.19658 | -118.35958 | 700 ft | 15 kts | 300° |
| 2026-04-21 18:43 | 34.19691 | -118.36121 | 699 ft | 25 kts | 270° |
| 2026-04-21 18:44 | 34.19691 | -118.36363 | 703 ft | 33 kts | 264° |
| 2026-04-21 18:44 | 34.19695 | -118.36664 | 699 ft | 36 kts | 274° |
| 2026-04-21 18:44 | 34.19693 | -118.36839 | 703 ft | 16 kts | 281° |
| 2026-04-21 18:44 | 34.19788 | -118.36882 | 699 ft | 19 kts | 40° |
| 2026-04-21 18:45 | 34.19793 | -118.36706 | 702 ft | 26 kts | 83° |
| 2026-04-21 18:45 | 34.19782 | -118.36293 | 697 ft | 80 kts | 94° |
| 2026-04-21 18:45 | 34.19773 | -118.35393 | 739 ft | 130 kts | 92° |
| 2026-04-21 18:45 | 34.19761 | -118.34247 | 1170 ft | 144 kts | 100° |
| 2026-04-21 18:46 | 34.19592 | -118.33057 | 1763 ft | 144 kts | 118° |
| 2026-04-21 18:46 | 34.18875 | -118.32300 | 2373 ft | 140 kts | 171° |
| 2026-04-21 18:46 | 34.17963 | -118.32548 | 2975 ft | 140 kts | 218° |
| 2026-04-21 18:46 | 34.17241 | -118.33371 | 3579 ft | 143 kts | 223° |
| 2026-04-21 18:47 | 34.16790 | -118.34409 | 4188 ft | 145 kts | 269° |
| 2026-04-21 18:47 | 34.17037 | -118.35601 | 4779 ft | 150 kts | 297° |
| 2026-04-21 18:47 | 34.17564 | -118.36690 | 5397 ft | 150 kts | 292° |
| 2026-04-21 18:47 | 34.17987 | -118.37846 | 6015 ft | 150 kts | 291° |
| 2026-04-21 18:48 | 34.18448 | -118.38994 | 6627 ft | 153 kts | 293° |
| 2026-04-21 18:48 | 34.18895 | -118.40157 | 7261 ft | 151 kts | 291° |
| 2026-04-21 18:48 | 34.19332 | -118.41337 | 7849 ft | 155 kts | 291° |
| 2026-04-21 18:48 | 34.19785 | -118.42518 | 8463 ft | 155 kts | 291° |
| 2026-04-21 18:49 | 34.20250 | -118.43713 | 9088 ft | 158 kts | 292° |
| 2026-04-21 18:49 | 34.20719 | -118.44910 | 9706 ft | 158 kts | 289° |
| 2026-04-21 18:49 | 34.21011 | -118.45716 | 10104 ft | 159 kts | 288° |
| 2026-04-21 18:49 | 34.21642 | -118.47339 | 10913 ft | 160 kts | 286° |
| 2026-04-21 18:50 | 34.22102 | -118.48546 | 11503 ft | 161 kts | 284° |
| 2026-04-21 18:50 | 34.22381 | -118.49800 | 12114 ft | 143 kts | 252° |
| 2026-04-21 18:50 | 34.22304 | -118.51001 | 12651 ft | 149 kts | 261° |
| 2026-04-21 18:50 | 34.22347 | -118.52246 | 13282 ft | 147 kts | 258° |
| 2026-04-21 18:51 | 34.22334 | -118.53480 | 13868 ft | 147 kts | 258° |
| 2026-04-21 18:51 | 34.22334 | -118.54725 | 14449 ft | 149 kts | 258° |
| 2026-04-21 18:51 | 34.22333 | -118.55971 | 15050 ft | 148 kts | 258° |
| 2026-04-21 18:51 | 34.22329 | -118.57188 | 15594 ft | 148 kts | 258° |
| 2026-04-21 18:52 | 34.22325 | -118.58505 | 15962 ft | 164 kts | 258° |
| 2026-04-21 18:52 | 34.22321 | -118.60012 | 16013 ft | 194 kts | 260° |
| 2026-04-21 18:52 | 34.22326 | -118.61765 | 16017 ft | 222 kts | 261° |
| 2026-04-21 18:52 | 34.22327 | -118.63722 | 16018 ft | 243 kts | 262° |
| 2026-04-21 18:53 | 34.22326 | -118.65825 | 16020 ft | 258 kts | 262° |
| 2026-04-21 18:53 | 34.22326 | -118.68042 | 16015 ft | 268 kts | 262° |
| 2026-04-21 18:53 | 34.22399 | -118.70327 | 16018 ft | 280 kts | 272° |
| 2026-04-21 18:53 | 34.23092 | -118.72599 | 16017 ft | 297 kts | 290° |
| 2026-04-21 18:54 | 34.24413 | -118.74612 | 16014 ft | 316 kts | 309° |
| 2026-04-21 18:54 | 34.26041 | -118.76396 | 16011 ft | 315 kts | 306° |
| 2026-04-21 18:54 | 34.27546 | -118.78313 | 16001 ft | 314 kts | 304° |
| 2026-04-21 18:54 | 34.29062 | -118.80231 | 16001 ft | 317 kts | 306° |
| 2026-04-21 18:55 | 34.30119 | -118.81459 | 15998 ft | 319 kts | 308° |
| 2026-04-21 18:55 | 34.32232 | -118.83965 | 16001 ft | 317 kts | 305° |
| 2026-04-21 18:55 | 34.33776 | -118.85875 | 16000 ft | 318 kts | 306° |
| 2026-04-21 18:55 | 34.35262 | -118.87815 | 16002 ft | 307 kts | 294° |
| 2026-04-21 18:56 | 34.36068 | -118.90100 | 16012 ft | 289 kts | 276° |
| 2026-04-21 18:56 | 34.36406 | -118.92465 | 16007 ft | 286 kts | 270° |
| 2026-04-21 18:56 | 34.36809 | -118.94844 | 16009 ft | 290 kts | 275° |
| 2026-04-21 18:56 | 34.37286 | -118.97224 | 16010 ft | 290 kts | 274° |
| 2026-04-21 18:57 | 34.37683 | -118.99608 | 16008 ft | 289 kts | 272° |
| 2026-04-21 18:57 | 34.38083 | -119.01994 | 16009 ft | 290 kts | 274° |
| 2026-04-21 18:57 | 34.38524 | -119.04382 | 16011 ft | 290 kts | 274° |
| 2026-04-21 18:57 | 34.38927 | -119.06769 | 16008 ft | 289 kts | 272° |
| 2026-04-21 18:58 | 34.39341 | -119.09150 | 16009 ft | 288 kts | 273° |
| 2026-04-21 18:58 | 34.39762 | -119.11526 | 16006 ft | 289 kts | 273° |
| 2026-04-21 18:58 | 34.40171 | -119.13907 | 16010 ft | 289 kts | 273° |
| 2026-04-21 18:58 | 34.40577 | -119.16261 | 16009 ft | 290 kts | 273° |
| 2026-04-21 18:59 | 34.40990 | -119.18656 | 16001 ft | 291 kts | 273° |
| 2026-04-21 18:59 | 34.41408 | -119.21051 | 15934 ft | 293 kts | 273° |
| 2026-04-21 18:59 | 34.41824 | -119.23487 | 15683 ft | 298 kts | 273° |
| 2026-04-21 18:59 | 34.42254 | -119.25953 | 15436 ft | 301 kts | 274° |
| 2026-04-21 19:00 | 34.42680 | -119.28437 | 15186 ft | 302 kts | 273° |
| 2026-04-21 19:00 | 34.43106 | -119.30930 | 14945 ft | 303 kts | 274° |
| 2026-04-21 19:00 | 34.43491 | -119.33424 | 14698 ft | 293 kts | 270° |
| 2026-04-21 19:00 | 34.43757 | -119.35701 | 14452 ft | 261 kts | 269° |
| 2026-04-21 19:01 | 34.44004 | -119.37826 | 14215 ft | 250 kts | 270° |
| 2026-04-21 19:01 | 34.44297 | -119.39878 | 13984 ft | 245 kts | 270° |
| 2026-04-21 19:01 | 34.44556 | -119.41909 | 13743 ft | 243 kts | 269° |
| 2026-04-21 19:01 | 34.44813 | -119.43925 | 13518 ft | 242 kts | 270° |
| 2026-04-21 19:02 | 34.45079 | -119.45933 | 13287 ft | 241 kts | 270° |
| 2026-04-21 19:02 | 34.45342 | -119.48022 | 13109 ft | 262 kts | 270° |
| 2026-04-21 19:02 | 34.45641 | -119.50274 | 12950 ft | 278 kts | 271° |
| 2026-04-21 19:02 | 34.45951 | -119.52631 | 12772 ft | 287 kts | 271° |
| 2026-04-21 19:03 | 34.46254 | -119.55005 | 12578 ft | 271 kts | 271° |
| 2026-04-21 19:03 | 34.46544 | -119.57106 | 12335 ft | 240 kts | 270° |
| 2026-04-21 19:03 | 34.46778 | -119.59169 | 12124 ft | 259 kts | 270° |
| 2026-04-21 19:03 | 34.47076 | -119.61376 | 11900 ft | 271 kts | 272° |
| 2026-04-21 19:04 | 34.47375 | -119.63684 | 11668 ft | 280 kts | 270° |
| 2026-04-21 19:04 | 34.47665 | -119.66034 | 11458 ft | 285 kts | 272° |
| 2026-04-21 19:04 | 34.47978 | -119.68341 | 11231 ft | 258 kts | 272° |
| 2026-04-21 19:04 | 34.48254 | -119.70391 | 11004 ft | 239 kts | 271° |
| 2026-04-21 19:05 | 34.48482 | -119.72339 | 10770 ft | 231 kts | 271° |
| 2026-04-21 19:05 | 34.48734 | -119.74255 | 10539 ft | 234 kts | 272° |
| 2026-04-21 19:05 | 34.48984 | -119.76331 | 10355 ft | 261 kts | 272° |
| 2026-04-21 19:05 | 34.49278 | -119.78573 | 10184 ft | 276 kts | 274° |
| 2026-04-21 19:06 | 34.49585 | -119.80905 | 10019 ft | 283 kts | 274° |
| 2026-04-21 19:06 | 34.49860 | -119.83075 | 9841 ft | 240 kts | 273° |
| 2026-04-21 19:06 | 34.50105 | -119.85007 | 9654 ft | 227 kts | 273° |
| 2026-04-21 19:06 | 34.50335 | -119.86883 | 9471 ft | 223 kts | 273° |
| 2026-04-21 19:07 | 34.50570 | -119.88737 | 9287 ft | 222 kts | 274° |
| 2026-04-21 19:07 | 34.50809 | -119.90586 | 9102 ft | 222 kts | 274° |
| 2026-04-21 19:07 | 34.51042 | -119.92493 | 8930 ft | 242 kts | 274° |
| 2026-04-21 19:07 | 34.51307 | -119.94612 | 8764 ft | 264 kts | 275° |
| 2026-04-21 19:08 | 34.51600 | -119.96860 | 8602 ft | 275 kts | 275° |
| 2026-04-21 19:08 | 34.51890 | -119.99167 | 8437 ft | 279 kts | 275° |
| 2026-04-21 19:08 | 34.52181 | -120.01508 | 8274 ft | 282 kts | 275° |
| 2026-04-21 19:08 | 34.52471 | -120.03864 | 8103 ft | 277 kts | 275° |
| 2026-04-21 19:09 | 34.52751 | -120.05957 | 7878 ft | 229 kts | 274° |
| 2026-04-21 19:09 | 34.52898 | -120.07183 | 7723 ft | 217 kts | 273° |
| 2026-04-21 19:09 | 34.53118 | -120.09001 | 7485 ft | 220 kts | 277° |
| 2026-04-21 19:09 | 34.54225 | -120.11103 | 7188 ft | 237 kts | 318° |
| 2026-04-21 19:10 | 34.55616 | -120.12199 | 6959 ft | 238 kts | 318° |
| 2026-04-21 19:10 | 34.56817 | -120.13546 | 6724 ft | 233 kts | 307° |
| 2026-04-21 19:10 | 34.57892 | -120.15017 | 6502 ft | 233 kts | 306° |
| 2026-04-21 19:10 | 34.58633 | -120.15987 | 6347 ft | 231 kts | 308° |
| 2026-04-21 19:11 | 34.59773 | -120.17361 | 6122 ft | 231 kts | 310° |
| 2026-04-21 19:11 | 34.60892 | -120.18756 | 5897 ft | 230 kts | 308° |
| 2026-04-21 19:11 | 34.62001 | -120.20155 | 5665 ft | 230 kts | 309° |
| 2026-04-21 19:11 | 34.63122 | -120.21543 | 5445 ft | 230 kts | 310° |
| 2026-04-21 19:12 | 34.64225 | -120.22917 | 5220 ft | 231 kts | 310° |
| 2026-04-21 19:12 | 34.65341 | -120.24313 | 4995 ft | 230 kts | 310° |
| 2026-04-21 19:12 | 34.66458 | -120.25706 | 4772 ft | 230 kts | 310° |
| 2026-04-21 19:12 | 34.67588 | -120.27113 | 4554 ft | 229 kts | 312° |
| 2026-04-21 19:13 | 34.68704 | -120.28489 | 4320 ft | 228 kts | 310° |
| 2026-04-21 19:13 | 34.69777 | -120.29874 | 4093 ft | 228 kts | 311° |
| 2026-04-21 19:13 | 34.70890 | -120.31239 | 3872 ft | 228 kts | 313° |
| 2026-04-21 19:13 | 34.71997 | -120.32619 | 3645 ft | 228 kts | 312° |
| 2026-04-21 19:14 | 34.73244 | -120.33790 | 3417 ft | 228 kts | 332° |
| 2026-04-21 19:14 | 34.74687 | -120.34587 | 3190 ft | 227 kts | 335° |
| 2026-04-21 19:14 | 34.76089 | -120.35463 | 2962 ft | 227 kts | 329° |
| 2026-04-21 19:14 | 34.77443 | -120.36450 | 2740 ft | 226 kts | 329° |
| 2026-04-21 19:15 | 34.78826 | -120.37315 | 2534 ft | 222 kts | 333° |
| 2026-04-21 19:15 | 34.80151 | -120.38225 | 2508 ft | 214 kts | 325° |
| 2026-04-21 19:15 | 34.81378 | -120.39213 | 2348 ft | 204 kts | 328° |
| 2026-04-21 19:15 | 34.82590 | -120.39988 | 2256 ft | 191 kts | 330° |
| 2026-04-21 19:16 | 34.83732 | -120.40702 | 2038 ft | 177 kts | 329° |
| 2026-04-21 19:16 | 34.84814 | -120.41270 | 1703 ft | 163 kts | 336° |
| 2026-04-21 19:16 | 34.85903 | -120.41623 | 1378 ft | 156 kts | 339° |
| 2026-04-21 19:16 | 34.86869 | -120.42061 | 1093 ft | 142 kts | 328° |
| 2026-04-21 19:17 | 34.88333 | -120.43422 | 586 ft | 134 kts | 310° |
| 2026-04-21 19:17 | 34.88975 | -120.44210 | 349 ft | 122 kts | 311° |
| 2026-04-21 19:17 | 34.89543 | -120.44886 | 243 ft | 106 kts | 314° |
| 2026-04-21 19:18 | 34.89947 | -120.45390 | 229 ft | 12 kts | 319° |
| 2026-04-21 19:18 | 34.89974 | -120.45406 | 227 ft | 17 kts | 9° |
| 2026-04-21 19:18 | 34.90054 | -120.45354 | 230 ft | 13 kts | 6° |
| 2026-04-21 19:18 | 34.90083 | -120.45308 | 229 ft | 0 kts | 131° |